sensor_id;sensor_type;location;lat;lon;timestamp;P1;durP1;ratioP1;P2;durP2;ratioP2
81629;SDS011;71039;49.500;10.418;2024-02-16T00:01:38;2.10;;;1.85;;
81629;SDS011;71039;49.500;10.418;2024-02-16T00:04:04;1.77;;;1.67;;
81629;SDS011;71039;49.500;10.418;2024-02-16T00:06:29;1.95;;;1.85;;
81629;SDS011;71039;49.500;10.418;2024-02-16T00:08:55;2.17;;;2.05;;
81629;SDS011;71039;49.500;10.418;2024-02-16T00:11:20;1.83;;;1.73;;
81629;SDS011;71039;49.500;10.418;2024-02-16T00:13:45;1.95;;;1.85;;
81629;SDS011;71039;49.500;10.418;2024-02-16T00:16:11;1.80;;;1.70;;
81629;SDS011;71039;49.500;10.418;2024-02-16T00:18:36;1.92;;;1.83;;
81629;SDS011;71039;49.500;10.418;2024-02-16T00:21:02;2.53;;;2.42;;
81629;SDS011;71039;49.500;10.418;2024-02-16T00:23:28;1.88;;;1.77;;
81629;SDS011;71039;49.500;10.418;2024-02-16T00:25:53;2.67;;;2.47;;
81629;SDS011;71039;49.500;10.418;2024-02-16T00:28:19;2.10;;;2.00;;
81629;SDS011;71039;49.500;10.418;2024-02-16T00:30:44;2.40;;;2.25;;
81629;SDS011;71039;49.500;10.418;2024-02-16T00:33:10;2.45;;;2.25;;
81629;SDS011;71039;49.500;10.418;2024-02-16T00:35:35;1.92;;;1.83;;
81629;SDS011;71039;49.500;10.418;2024-02-16T00:38:01;1.95;;;1.85;;
81629;SDS011;71039;49.500;10.418;2024-02-16T00:40:26;1.90;;;1.80;;
81629;SDS011;71039;49.500;10.418;2024-02-16T00:42:52;2.05;;;1.95;;
81629;SDS011;71039;49.500;10.418;2024-02-16T00:45:17;2.58;;;2.38;;
81629;SDS011;71039;49.500;10.418;2024-02-16T00:47:43;2.60;;;2.40;;
81629;SDS011;71039;49.500;10.418;2024-02-16T00:50:08;2.30;;;2.20;;
81629;SDS011;71039;49.500;10.418;2024-02-16T00:52:34;2.50;;;2.40;;
81629;SDS011;71039;49.500;10.418;2024-02-16T00:55:00;1.40;;;1.38;;
81629;SDS011;71039;49.500;10.418;2024-02-16T00:57:26;2.25;;;2.13;;
81629;SDS011;71039;49.500;10.418;2024-02-16T00:59:51;2.13;;;2.03;;
81629;SDS011;71039;49.500;10.418;2024-02-16T01:02:17;1.85;;;1.75;;
81629;SDS011;71039;49.500;10.418;2024-02-16T01:04:42;1.95;;;1.85;;
81629;SDS011;71039;49.500;10.418;2024-02-16T01:07:08;2.42;;;2.33;;
81629;SDS011;71039;49.500;10.418;2024-02-16T01:09:33;2.15;;;2.05;;
81629;SDS011;71039;49.500;10.418;2024-02-16T01:11:59;2.35;;;2.25;;
81629;SDS011;71039;49.500;10.418;2024-02-16T01:14:24;2.05;;;1.95;;
81629;SDS011;71039;49.500;10.418;2024-02-16T01:16:49;1.98;;;1.88;;
81629;SDS011;71039;49.500;10.418;2024-02-16T01:19:15;2.25;;;2.15;;
81629;SDS011;71039;49.500;10.418;2024-02-16T01:21:40;1.83;;;1.73;;
81629;SDS011;71039;49.500;10.418;2024-02-16T01:24:06;2.38;;;1.65;;
81629;SDS011;71039;49.500;10.418;2024-02-16T01:26:31;2.42;;;2.33;;
81629;SDS011;71039;49.500;10.418;2024-02-16T01:28:57;2.20;;;2.10;;
81629;SDS011;71039;49.500;10.418;2024-02-16T01:31:23;2.55;;;2.42;;
81629;SDS011;71039;49.500;10.418;2024-02-16T01:33:49;2.10;;;2.00;;
81629;SDS011;71039;49.500;10.418;2024-02-16T01:36:14;2.28;;;1.98;;
81629;SDS011;71039;49.500;10.418;2024-02-16T01:38:40;2.53;;;2.40;;
81629;SDS011;71039;49.500;10.418;2024-02-16T01:41:05;2.08;;;1.98;;
81629;SDS011;71039;49.500;10.418;2024-02-16T01:43:31;1.92;;;1.83;;
81629;SDS011;71039;49.500;10.418;2024-02-16T01:45:56;2.90;;;2.70;;
81629;SDS011;71039;49.500;10.418;2024-02-16T01:48:22;2.17;;;2.08;;
81629;SDS011;71039;49.500;10.418;2024-02-16T01:50:47;2.30;;;2.20;;
81629;SDS011;71039;49.500;10.418;2024-02-16T01:53:14;2.13;;;2.03;;
81629;SDS011;71039;49.500;10.418;2024-02-16T01:55:41;2.38;;;2.28;;
81629;SDS011;71039;49.500;10.418;2024-02-16T01:58:06;2.08;;;1.98;;
81629;SDS011;71039;49.500;10.418;2024-02-16T02:00:32;2.72;;;2.58;;
81629;SDS011;71039;49.500;10.418;2024-02-16T02:02:58;2.85;;;2.65;;
81629;SDS011;71039;49.500;10.418;2024-02-16T02:05:23;2.20;;;2.10;;
81629;SDS011;71039;49.500;10.418;2024-02-16T02:07:49;2.38;;;2.00;;
81629;SDS011;71039;49.500;10.418;2024-02-16T02:10:14;2.78;;;2.60;;
81629;SDS011;71039;49.500;10.418;2024-02-16T02:12:40;2.38;;;2.28;;
81629;SDS011;71039;49.500;10.418;2024-02-16T02:15:07;2.15;;;2.05;;
81629;SDS011;71039;49.500;10.418;2024-02-16T02:17:33;2.53;;;2.30;;
81629;SDS011;71039;49.500;10.418;2024-02-16T02:19:59;2.60;;;2.33;;
81629;SDS011;71039;49.500;10.418;2024-02-16T02:22:25;2.22;;;2.05;;
81629;SDS011;71039;49.500;10.418;2024-02-16T02:24:50;2.10;;;2.00;;
81629;SDS011;71039;49.500;10.418;2024-02-16T02:27:16;2.35;;;2.25;;
81629;SDS011;71039;49.500;10.418;2024-02-16T02:29:41;2.53;;;2.33;;
81629;SDS011;71039;49.500;10.418;2024-02-16T02:32:07;2.63;;;2.42;;
81629;SDS011;71039;49.500;10.418;2024-02-16T02:34:33;2.75;;;2.47;;
81629;SDS011;71039;49.500;10.418;2024-02-16T02:36:59;2.92;;;2.72;;
81629;SDS011;71039;49.500;10.418;2024-02-16T02:39:24;2.58;;;2.47;;
81629;SDS011;71039;49.500;10.418;2024-02-16T02:41:50;2.40;;;2.30;;
81629;SDS011;71039;49.500;10.418;2024-02-16T02:44:15;2.55;;;2.45;;
81629;SDS011;71039;49.500;10.418;2024-02-16T02:46:41;2.50;;;2.38;;
81629;SDS011;71039;49.500;10.418;2024-02-16T02:49:06;2.42;;;2.22;;
81629;SDS011;71039;49.500;10.418;2024-02-16T02:51:32;2.75;;;2.53;;
81629;SDS011;71039;49.500;10.418;2024-02-16T02:53:57;2.13;;;2.03;;
81629;SDS011;71039;49.500;10.418;2024-02-16T02:56:23;2.35;;;2.25;;
81629;SDS011;71039;49.500;10.418;2024-02-16T02:58:48;2.47;;;2.30;;
81629;SDS011;71039;49.500;10.418;2024-02-16T03:01:14;2.20;;;2.10;;
81629;SDS011;71039;49.500;10.418;2024-02-16T03:03:40;2.35;;;2.25;;
81629;SDS011;71039;49.500;10.418;2024-02-16T03:06:08;2.50;;;2.40;;
81629;SDS011;71039;49.500;10.418;2024-02-16T03:08:37;2.33;;;2.22;;
81629;SDS011;71039;49.500;10.418;2024-02-16T03:11:02;2.05;;;1.95;;
81629;SDS011;71039;49.500;10.418;2024-02-16T03:13:28;1.85;;;1.75;;
81629;SDS011;71039;49.500;10.418;2024-02-16T03:15:54;2.13;;;2.03;;
81629;SDS011;71039;49.500;10.418;2024-02-16T03:18:19;2.80;;;2.63;;
81629;SDS011;71039;49.500;10.418;2024-02-16T03:20:45;2.17;;;2.08;;
81629;SDS011;71039;49.500;10.418;2024-02-16T03:23:10;1.70;;;1.60;;
81629;SDS011;71039;49.500;10.418;2024-02-16T03:25:36;2.10;;;2.00;;
81629;SDS011;71039;49.500;10.418;2024-02-16T03:28:01;2.60;;;2.42;;
81629;SDS011;71039;49.500;10.418;2024-02-16T03:30:27;2.58;;;2.17;;
81629;SDS011;71039;49.500;10.418;2024-02-16T03:32:52;2.30;;;2.20;;
81629;SDS011;71039;49.500;10.418;2024-02-16T03:35:18;2.90;;;2.70;;
81629;SDS011;71039;49.500;10.418;2024-02-16T03:37:44;2.42;;;2.33;;
81629;SDS011;71039;49.500;10.418;2024-02-16T03:40:10;1.98;;;1.88;;
81629;SDS011;71039;49.500;10.418;2024-02-16T03:42:36;2.88;;;2.67;;
81629;SDS011;71039;49.500;10.418;2024-02-16T03:45:04;2.55;;;2.10;;
81629;SDS011;71039;49.500;10.418;2024-02-16T03:47:30;3.03;;;2.78;;
81629;SDS011;71039;49.500;10.418;2024-02-16T03:49:55;3.45;;;1.88;;
81629;SDS011;71039;49.500;10.418;2024-02-16T03:52:21;2.15;;;2.05;;
81629;SDS011;71039;49.500;10.418;2024-02-16T03:54:46;2.53;;;2.42;;
81629;SDS011;71039;49.500;10.418;2024-02-16T03:57:12;2.28;;;2.17;;
81629;SDS011;71039;49.500;10.418;2024-02-16T03:59:37;2.17;;;2.08;;
81629;SDS011;71039;49.500;10.418;2024-02-16T04:02:03;2.55;;;2.35;;
81629;SDS011;71039;49.500;10.418;2024-02-16T04:04:28;2.50;;;2.40;;
81629;SDS011;71039;49.500;10.418;2024-02-16T04:06:54;2.40;;;2.30;;
81629;SDS011;71039;49.500;10.418;2024-02-16T04:09:19;2.83;;;2.47;;
81629;SDS011;71039;49.500;10.418;2024-02-16T04:11:45;2.88;;;2.30;;
81629;SDS011;71039;49.500;10.418;2024-02-16T04:14:11;2.50;;;2.35;;
81629;SDS011;71039;49.500;10.418;2024-02-16T04:16:37;2.90;;;2.70;;
81629;SDS011;71039;49.500;10.418;2024-02-16T04:19:02;2.17;;;2.08;;
81629;SDS011;71039;49.500;10.418;2024-02-16T04:21:28;2.08;;;1.98;;
81629;SDS011;71039;49.500;10.418;2024-02-16T04:23:53;2.90;;;2.75;;
81629;SDS011;71039;49.500;10.418;2024-02-16T04:26:19;2.67;;;2.25;;
81629;SDS011;71039;49.500;10.418;2024-02-16T04:28:44;2.70;;;2.60;;
81629;SDS011;71039;49.500;10.418;2024-02-16T04:31:10;2.97;;;2.78;;
81629;SDS011;71039;49.500;10.418;2024-02-16T04:33:35;2.15;;;2.05;;
81629;SDS011;71039;49.500;10.418;2024-02-16T04:36:01;2.40;;;2.30;;
81629;SDS011;71039;49.500;10.418;2024-02-16T04:38:26;2.65;;;2.45;;
81629;SDS011;71039;49.500;10.418;2024-02-16T04:40:52;2.65;;;2.53;;
81629;SDS011;71039;49.500;10.418;2024-02-16T04:43:17;1.95;;;1.85;;
81629;SDS011;71039;49.500;10.418;2024-02-16T04:45:43;3.00;;;2.80;;
81629;SDS011;71039;49.500;10.418;2024-02-16T04:48:08;2.35;;;2.25;;
81629;SDS011;71039;49.500;10.418;2024-02-16T04:50:34;2.33;;;2.22;;
81629;SDS011;71039;49.500;10.418;2024-02-16T04:53:00;1.88;;;1.77;;
81629;SDS011;71039;49.500;10.418;2024-02-16T04:55:26;2.40;;;2.30;;
81629;SDS011;71039;49.500;10.418;2024-02-16T04:57:51;2.92;;;2.72;;
81629;SDS011;71039;49.500;10.418;2024-02-16T05:00:17;3.45;;;3.15;;
81629;SDS011;71039;49.500;10.418;2024-02-16T05:02:42;2.35;;;2.25;;
81629;SDS011;71039;49.500;10.418;2024-02-16T05:05:08;2.90;;;2.70;;
81629;SDS011;71039;49.500;10.418;2024-02-16T05:07:34;2.80;;;2.60;;
81629;SDS011;71039;49.500;10.418;2024-02-16T05:09:59;2.55;;;2.45;;
81629;SDS011;71039;49.500;10.418;2024-02-16T05:12:25;2.75;;;2.55;;
81629;SDS011;71039;49.500;10.418;2024-02-16T05:14:50;2.42;;;2.30;;
81629;SDS011;71039;49.500;10.418;2024-02-16T05:17:16;2.55;;;2.45;;
81629;SDS011;71039;49.500;10.418;2024-02-16T05:19:42;2.85;;;2.67;;
81629;SDS011;71039;49.500;10.418;2024-02-16T05:22:08;3.15;;;2.95;;
81629;SDS011;71039;49.500;10.418;2024-02-16T05:24:33;3.58;;;3.30;;
81629;SDS011;71039;49.500;10.418;2024-02-16T05:26:59;2.92;;;2.72;;
81629;SDS011;71039;49.500;10.418;2024-02-16T05:29:25;2.95;;;2.47;;
81629;SDS011;71039;49.500;10.418;2024-02-16T05:31:51;2.63;;;2.47;;
81629;SDS011;71039;49.500;10.418;2024-02-16T05:34:17;3.03;;;2.80;;
81629;SDS011;71039;49.500;10.418;2024-02-16T05:36:43;3.22;;;2.50;;
81629;SDS011;71039;49.500;10.418;2024-02-16T05:39:08;3.53;;;3.33;;
81629;SDS011;71039;49.500;10.418;2024-02-16T05:41:34;3.35;;;3.15;;
81629;SDS011;71039;49.500;10.418;2024-02-16T05:43:59;2.90;;;2.42;;
81629;SDS011;71039;49.500;10.418;2024-02-16T05:46:25;2.50;;;2.38;;
81629;SDS011;71039;49.500;10.418;2024-02-16T05:48:50;2.83;;;2.63;;
81629;SDS011;71039;49.500;10.418;2024-02-16T05:51:16;3.05;;;2.85;;
81629;SDS011;71039;49.500;10.418;2024-02-16T05:53:41;3.30;;;3.10;;
81629;SDS011;71039;49.500;10.418;2024-02-16T05:56:07;3.17;;;2.97;;
81629;SDS011;71039;49.500;10.418;2024-02-16T05:58:32;3.20;;;3.00;;
81629;SDS011;71039;49.500;10.418;2024-02-16T06:00:58;2.88;;;2.72;;
81629;SDS011;71039;49.500;10.418;2024-02-16T06:03:23;3.03;;;2.83;;
81629;SDS011;71039;49.500;10.418;2024-02-16T06:05:49;2.78;;;2.58;;
81629;SDS011;71039;49.500;10.418;2024-02-16T06:08:14;2.75;;;2.55;;
81629;SDS011;71039;49.500;10.418;2024-02-16T06:10:40;2.65;;;2.45;;
81629;SDS011;71039;49.500;10.418;2024-02-16T06:13:05;2.40;;;2.30;;
81629;SDS011;71039;49.500;10.418;2024-02-16T06:15:31;2.95;;;2.63;;
81629;SDS011;71039;49.500;10.418;2024-02-16T06:17:57;3.05;;;2.85;;
81629;SDS011;71039;49.500;10.418;2024-02-16T06:20:22;2.72;;;2.53;;
81629;SDS011;71039;49.500;10.418;2024-02-16T06:22:48;3.08;;;2.88;;
81629;SDS011;71039;49.500;10.418;2024-02-16T06:25:14;2.90;;;2.70;;
81629;SDS011;71039;49.500;10.418;2024-02-16T06:27:39;3.28;;;3.08;;
81629;SDS011;71039;49.500;10.418;2024-02-16T06:30:05;3.25;;;3.05;;
81629;SDS011;71039;49.500;10.418;2024-02-16T06:32:31;3.17;;;2.97;;
81629;SDS011;71039;49.500;10.418;2024-02-16T06:34:57;3.20;;;3.00;;
81629;SDS011;71039;49.500;10.418;2024-02-16T06:37:22;3.50;;;3.30;;
81629;SDS011;71039;49.500;10.418;2024-02-16T06:39:48;3.33;;;2.97;;
81629;SDS011;71039;49.500;10.418;2024-02-16T06:42:13;3.42;;;3.22;;
81629;SDS011;71039;49.500;10.418;2024-02-16T06:44:39;2.88;;;2.70;;
81629;SDS011;71039;49.500;10.418;2024-02-16T06:47:05;3.10;;;2.90;;
81629;SDS011;71039;49.500;10.418;2024-02-16T06:49:31;3.03;;;2.83;;
81629;SDS011;71039;49.500;10.418;2024-02-16T06:51:56;3.28;;;3.08;;
81629;SDS011;71039;49.500;10.418;2024-02-16T06:54:22;3.08;;;2.88;;
81629;SDS011;71039;49.500;10.418;2024-02-16T06:56:48;5.15;;;3.95;;
81629;SDS011;71039;49.500;10.418;2024-02-16T06:59:13;2.58;;;2.45;;
81629;SDS011;71039;49.500;10.418;2024-02-16T07:01:39;2.85;;;2.65;;
81629;SDS011;71039;49.500;10.418;2024-02-16T07:04:04;3.45;;;3.17;;
81629;SDS011;71039;49.500;10.418;2024-02-16T07:06:30;3.05;;;2.85;;
81629;SDS011;71039;49.500;10.418;2024-02-16T07:08:55;2.85;;;2.65;;
81629;SDS011;71039;49.500;10.418;2024-02-16T07:11:21;3.42;;;3.15;;
81629;SDS011;71039;49.500;10.418;2024-02-16T07:13:46;3.53;;;3.22;;
81629;SDS011;71039;49.500;10.418;2024-02-16T07:16:12;3.40;;;3.20;;
81629;SDS011;71039;49.500;10.418;2024-02-16T07:18:37;3.97;;;3.72;;
81629;SDS011;71039;49.500;10.418;2024-02-16T07:21:03;3.95;;;3.65;;
81629;SDS011;71039;49.500;10.418;2024-02-16T07:23:29;3.80;;;3.60;;
81629;SDS011;71039;49.500;10.418;2024-02-16T07:25:55;3.78;;;3.38;;
81629;SDS011;71039;49.500;10.418;2024-02-16T07:28:20;2.83;;;2.63;;
81629;SDS011;71039;49.500;10.418;2024-02-16T07:30:46;4.03;;;3.72;;
81629;SDS011;71039;49.500;10.418;2024-02-16T07:33:12;4.25;;;3.95;;
81629;SDS011;71039;49.500;10.418;2024-02-16T07:35:37;4.05;;;3.65;;
81629;SDS011;71039;49.500;10.418;2024-02-16T07:38:03;4.28;;;3.90;;
81629;SDS011;71039;49.500;10.418;2024-02-16T07:40:28;4.47;;;4.07;;
81629;SDS011;71039;49.500;10.418;2024-02-16T07:42:54;4.78;;;4.38;;
81629;SDS011;71039;49.500;10.418;2024-02-16T07:45:20;4.40;;;4.10;;
81629;SDS011;71039;49.500;10.418;2024-02-16T07:47:46;5.10;;;4.07;;
81629;SDS011;71039;49.500;10.418;2024-02-16T07:50:11;4.43;;;4.07;;
81629;SDS011;71039;49.500;10.418;2024-02-16T07:52:37;5.25;;;4.75;;
81629;SDS011;71039;49.500;10.418;2024-02-16T07:55:04;5.43;;;4.93;;
81629;SDS011;71039;49.500;10.418;2024-02-16T07:57:30;5.03;;;4.63;;
81629;SDS011;71039;49.500;10.418;2024-02-16T07:59:56;4.72;;;4.32;;
81629;SDS011;71039;49.500;10.418;2024-02-16T08:02:21;3.50;;;3.20;;
81629;SDS011;71039;49.500;10.418;2024-02-16T08:04:47;3.47;;;3.13;;
81629;SDS011;71039;49.500;10.418;2024-02-16T08:07:14;4.22;;;3.83;;
81629;SDS011;71039;49.500;10.418;2024-02-16T08:09:39;3.47;;;3.20;;
81629;SDS011;71039;49.500;10.418;2024-02-16T08:12:08;3.22;;;2.97;;
81629;SDS011;71039;49.500;10.418;2024-02-16T08:14:33;3.10;;;2.78;;
81629;SDS011;71039;49.500;10.418;2024-02-16T08:16:59;3.78;;;3.55;;
81629;SDS011;71039;49.500;10.418;2024-02-16T08:19:26;2.90;;;2.70;;
81629;SDS011;71039;49.500;10.418;2024-02-16T08:21:57;3.58;;;3.28;;
81629;SDS011;71039;49.500;10.418;2024-02-16T08:24:23;4.00;;;3.03;;
81629;SDS011;71039;49.500;10.418;2024-02-16T08:26:48;3.90;;;3.60;;
81629;SDS011;71039;49.500;10.418;2024-02-16T08:29:14;3.65;;;3.38;;
81629;SDS011;71039;49.500;10.418;2024-02-16T08:31:39;3.28;;;3.05;;
81629;SDS011;71039;49.500;10.418;2024-02-16T08:34:05;3.95;;;3.58;;
81629;SDS011;71039;49.500;10.418;2024-02-16T08:36:30;3.38;;;3.10;;
81629;SDS011;71039;49.500;10.418;2024-02-16T08:38:56;2.75;;;2.55;;
81629;SDS011;71039;49.500;10.418;2024-02-16T08:41:21;4.40;;;3.80;;
81629;SDS011;71039;49.500;10.418;2024-02-16T08:43:47;4.05;;;3.65;;
81629;SDS011;71039;49.500;10.418;2024-02-16T08:46:12;3.72;;;3.42;;
81629;SDS011;71039;49.500;10.418;2024-02-16T08:48:38;3.97;;;3.60;;
81629;SDS011;71039;49.500;10.418;2024-02-16T08:51:04;3.85;;;3.55;;
81629;SDS011;71039;49.500;10.418;2024-02-16T08:53:29;4.20;;;3.70;;
81629;SDS011;71039;49.500;10.418;2024-02-16T08:55:55;4.30;;;4.00;;
81629;SDS011;71039;49.500;10.418;2024-02-16T08:58:20;4.65;;;4.25;;
81629;SDS011;71039;49.500;10.418;2024-02-16T09:00:46;5.28;;;4.18;;
81629;SDS011;71039;49.500;10.418;2024-02-16T09:03:11;3.60;;;3.30;;
81629;SDS011;71039;49.500;10.418;2024-02-16T09:05:37;5.18;;;4.68;;
81629;SDS011;71039;49.500;10.418;2024-02-16T09:08:02;4.38;;;4.00;;
81629;SDS011;71039;49.500;10.418;2024-02-16T09:10:28;5.43;;;4.22;;
81629;SDS011;71039;49.500;10.418;2024-02-16T09:12:54;4.90;;;3.85;;
81629;SDS011;71039;49.500;10.418;2024-02-16T09:15:19;3.88;;;3.55;;
81629;SDS011;71039;49.500;10.418;2024-02-16T09:17:45;5.80;;;5.30;;
81629;SDS011;71039;49.500;10.418;2024-02-16T09:20:10;4.57;;;4.05;;
81629;SDS011;71039;49.500;10.418;2024-02-16T09:22:36;5.45;;;4.20;;
81629;SDS011;71039;49.500;10.418;2024-02-16T09:25:02;4.85;;;4.45;;
81629;SDS011;71039;49.500;10.418;2024-02-16T09:27:27;3.85;;;3.45;;
81629;SDS011;71039;49.500;10.418;2024-02-16T09:29:53;3.95;;;3.65;;
81629;SDS011;71039;49.500;10.418;2024-02-16T09:32:18;3.13;;;2.92;;
81629;SDS011;71039;49.500;10.418;2024-02-16T09:34:44;3.63;;;3.33;;
81629;SDS011;71039;49.500;10.418;2024-02-16T09:37:09;4.55;;;3.30;;
81629;SDS011;71039;49.500;10.418;2024-02-16T09:39:35;3.35;;;3.05;;
81629;SDS011;71039;49.500;10.418;2024-02-16T09:42:00;2.85;;;2.65;;
81629;SDS011;71039;49.500;10.418;2024-02-16T09:44:26;3.10;;;2.90;;
81629;SDS011;71039;49.500;10.418;2024-02-16T09:46:53;3.05;;;2.85;;
81629;SDS011;71039;49.500;10.418;2024-02-16T09:49:19;2.88;;;2.67;;
81629;SDS011;71039;49.500;10.418;2024-02-16T09:51:44;3.13;;;2.83;;
81629;SDS011;71039;49.500;10.418;2024-02-16T09:54:10;4.70;;;3.47;;
81629;SDS011;71039;49.500;10.418;2024-02-16T09:56:37;3.20;;;2.95;;
81629;SDS011;71039;49.500;10.418;2024-02-16T09:59:03;3.35;;;3.00;;
81629;SDS011;71039;49.500;10.418;2024-02-16T10:01:28;2.65;;;2.45;;
81629;SDS011;71039;49.500;10.418;2024-02-16T10:03:54;3.75;;;2.90;;
81629;SDS011;71039;49.500;10.418;2024-02-16T10:06:19;2.90;;;2.70;;
81629;SDS011;71039;49.500;10.418;2024-02-16T10:08:48;3.38;;;2.65;;
81629;SDS011;71039;49.500;10.418;2024-02-16T10:11:18;2.95;;;2.75;;
81629;SDS011;71039;49.500;10.418;2024-02-16T10:13:54;3.10;;;2.85;;
81629;SDS011;71039;49.500;10.418;2024-02-16T10:16:23;2.40;;;2.20;;
81629;SDS011;71039;49.500;10.418;2024-02-16T10:18:49;2.53;;;2.33;;
81629;SDS011;71039;49.500;10.418;2024-02-16T10:21:28;2.03;;;1.92;;
81629;SDS011;71039;49.500;10.418;2024-02-16T10:23:59;2.00;;;1.90;;
81629;SDS011;71039;49.500;10.418;2024-02-16T10:26:25;2.53;;;2.33;;
81629;SDS011;71039;49.500;10.418;2024-02-16T10:28:51;2.50;;;2.08;;
81629;SDS011;71039;49.500;10.418;2024-02-16T10:31:20;3.65;;;2.17;;
81629;SDS011;71039;49.500;10.418;2024-02-16T10:33:48;2.60;;;2.40;;
81629;SDS011;71039;49.500;10.418;2024-02-16T10:36:14;2.28;;;2.08;;
81629;SDS011;71039;49.500;10.418;2024-02-16T10:38:40;2.42;;;2.22;;
81629;SDS011;71039;49.500;10.418;2024-02-16T10:41:07;2.13;;;1.90;;
81629;SDS011;71039;49.500;10.418;2024-02-16T10:43:34;1.90;;;1.80;;
81629;SDS011;71039;49.500;10.418;2024-02-16T10:45:59;1.73;;;1.63;;
81629;SDS011;71039;49.500;10.418;2024-02-16T10:48:25;2.60;;;2.40;;
81629;SDS011;71039;49.500;10.418;2024-02-16T10:50:51;2.28;;;2.15;;
81629;SDS011;71039;49.500;10.418;2024-02-16T10:53:23;2.15;;;1.92;;
81629;SDS011;71039;49.500;10.418;2024-02-16T10:55:51;2.20;;;2.00;;
81629;SDS011;71039;49.500;10.418;2024-02-16T10:58:17;2.63;;;1.90;;
81629;SDS011;71039;49.500;10.418;2024-02-16T11:00:49;2.90;;;2.65;;
81629;SDS011;71039;49.500;10.418;2024-02-16T11:03:17;2.05;;;1.83;;
81629;SDS011;71039;49.500;10.418;2024-02-16T11:05:43;2.70;;;2.50;;
81629;SDS011;71039;49.500;10.418;2024-02-16T11:08:12;2.30;;;2.17;;
81629;SDS011;71039;49.500;10.418;2024-02-16T11:10:39;2.05;;;1.92;;
81629;SDS011;71039;49.500;10.418;2024-02-16T11:13:04;1.83;;;1.73;;
81629;SDS011;71039;49.500;10.418;2024-02-16T11:15:30;3.22;;;1.85;;
81629;SDS011;71039;49.500;10.418;2024-02-16T11:17:57;1.80;;;1.50;;
81629;SDS011;71039;49.500;10.418;2024-02-16T11:20:25;2.40;;;2.15;;
81629;SDS011;71039;49.500;10.418;2024-02-16T11:22:51;1.92;;;1.77;;
81629;SDS011;71039;49.500;10.418;2024-02-16T11:25:17;2.03;;;1.92;;
81629;SDS011;71039;49.500;10.418;2024-02-16T11:27:42;2.28;;;2.10;;
81629;SDS011;71039;49.500;10.418;2024-02-16T11:30:10;2.63;;;1.75;;
81629;SDS011;71039;49.500;10.418;2024-02-16T11:32:36;2.67;;;1.63;;
81629;SDS011;71039;49.500;10.418;2024-02-16T11:35:05;1.85;;;1.75;;
81629;SDS011;71039;49.500;10.418;2024-02-16T11:37:31;2.05;;;1.85;;
81629;SDS011;71039;49.500;10.418;2024-02-16T11:39:57;1.58;;;1.48;;
81629;SDS011;71039;49.500;10.418;2024-02-16T11:42:22;2.20;;;2.00;;
81629;SDS011;71039;49.500;10.418;2024-02-16T11:44:54;2.13;;;1.92;;
81629;SDS011;71039;49.500;10.418;2024-02-16T11:47:20;1.73;;;1.63;;
81629;SDS011;71039;49.500;10.418;2024-02-16T11:52:12;1.77;;;1.67;;
81629;SDS011;71039;49.500;10.418;2024-02-16T11:54:43;1.60;;;1.48;;
81629;SDS011;71039;49.500;10.418;2024-02-16T11:57:09;1.80;;;1.70;;
81629;SDS011;71039;49.500;10.418;2024-02-16T11:59:34;1.95;;;1.85;;
81629;SDS011;71039;49.500;10.418;2024-02-16T12:02:00;2.40;;;2.08;;
81629;SDS011;71039;49.500;10.418;2024-02-16T12:04:29;3.13;;;1.98;;
81629;SDS011;71039;49.500;10.418;2024-02-16T12:06:58;2.38;;;2.17;;
81629;SDS011;71039;49.500;10.418;2024-02-16T12:09:25;2.10;;;1.83;;
81629;SDS011;71039;49.500;10.418;2024-02-16T12:11:52;2.20;;;2.00;;
81629;SDS011;71039;49.500;10.418;2024-02-16T12:16:50;1.60;;;1.50;;
81629;SDS011;71039;49.500;10.418;2024-02-16T12:19:20;1.70;;;1.60;;
81629;SDS011;71039;49.500;10.418;2024-02-16T12:21:48;1.80;;;1.70;;
81629;SDS011;71039;49.500;10.418;2024-02-16T12:24:14;1.60;;;1.50;;
81629;SDS011;71039;49.500;10.418;2024-02-16T12:26:40;1.48;;;1.35;;
81629;SDS011;71039;49.500;10.418;2024-02-16T12:29:05;1.80;;;1.70;;
81629;SDS011;71039;49.500;10.418;2024-02-16T12:31:31;1.85;;;1.75;;
81629;SDS011;71039;49.500;10.418;2024-02-16T12:33:56;1.67;;;1.55;;
81629;SDS011;71039;49.500;10.418;2024-02-16T12:36:22;1.60;;;1.50;;
81629;SDS011;71039;49.500;10.418;2024-02-16T12:38:47;1.80;;;1.63;;
81629;SDS011;71039;49.500;10.418;2024-02-16T12:41:13;2.33;;;1.45;;
81629;SDS011;71039;49.500;10.418;2024-02-16T12:43:38;1.23;;;1.13;;
81629;SDS011;71039;49.500;10.418;2024-02-16T12:46:04;1.98;;;1.63;;
81629;SDS011;71039;49.500;10.418;2024-02-16T12:48:29;1.52;;;1.42;;
81629;SDS011;71039;49.500;10.418;2024-02-16T12:50:55;1.40;;;1.30;;
81629;SDS011;71039;49.500;10.418;2024-02-16T12:53:21;1.15;;;1.05;;
81629;SDS011;71039;49.500;10.418;2024-02-16T12:55:46;1.33;;;1.23;;
81629;SDS011;71039;49.500;10.418;2024-02-16T12:58:12;1.50;;;1.40;;
81629;SDS011;71039;49.500;10.418;2024-02-16T13:00:37;1.10;;;0.98;;
81629;SDS011;71039;49.500;10.418;2024-02-16T13:03:03;1.25;;;1.25;;
81629;SDS011;71039;49.500;10.418;2024-02-16T13:05:29;1.35;;;1.20;;
81629;SDS011;71039;49.500;10.418;2024-02-16T13:07:54;1.25;;;1.25;;
81629;SDS011;71039;49.500;10.418;2024-02-16T13:10:20;1.08;;;1.08;;
81629;SDS011;71039;49.500;10.418;2024-02-16T13:12:45;2.10;;;1.13;;
81629;SDS011;71039;49.500;10.418;2024-02-16T13:15:11;1.85;;;1.30;;
81629;SDS011;71039;49.500;10.418;2024-02-16T13:17:36;1.05;;;1.05;;
81629;SDS011;71039;49.500;10.418;2024-02-16T13:20:02;1.10;;;0.85;;
81629;SDS011;71039;49.500;10.418;2024-02-16T13:22:27;2.38;;;1.08;;
81629;SDS011;71039;49.500;10.418;2024-02-16T13:24:53;1.30;;;1.20;;
81629;SDS011;71039;49.500;10.418;2024-02-16T13:27:18;1.27;;;0.77;;
81629;SDS011;71039;49.500;10.418;2024-02-16T13:29:44;1.33;;;1.23;;
81629;SDS011;71039;49.500;10.418;2024-02-16T13:32:09;1.58;;;0.82;;
81629;SDS011;71039;49.500;10.418;2024-02-16T13:34:35;0.73;;;0.73;;
81629;SDS011;71039;49.500;10.418;2024-02-16T13:37:00;1.02;;;1.02;;
81629;SDS011;71039;49.500;10.418;2024-02-16T13:39:26;2.80;;;0.98;;
81629;SDS011;71039;49.500;10.418;2024-02-16T13:41:51;0.95;;;0.95;;
81629;SDS011;71039;49.500;10.418;2024-02-16T13:44:17;0.95;;;0.93;;
81629;SDS011;71039;49.500;10.418;2024-02-16T13:46:44;1.25;;;1.15;;
81629;SDS011;71039;49.500;10.418;2024-02-16T13:49:11;1.42;;;1.33;;
81629;SDS011;71039;49.500;10.418;2024-02-16T13:51:37;2.05;;;1.17;;
81629;SDS011;71039;49.500;10.418;2024-02-16T13:54:02;3.10;;;1.65;;
81629;SDS011;71039;49.500;10.418;2024-02-16T13:56:28;1.42;;;1.10;;
81629;SDS011;71039;49.500;10.418;2024-02-16T13:58:53;2.75;;;1.40;;
81629;SDS011;71039;49.500;10.418;2024-02-16T14:01:19;1.13;;;1.13;;
81629;SDS011;71039;49.500;10.418;2024-02-16T14:03:44;1.45;;;1.42;;
81629;SDS011;71039;49.500;10.418;2024-02-16T14:06:10;1.70;;;1.30;;
81629;SDS011;71039;49.500;10.418;2024-02-16T14:08:35;1.15;;;1.05;;
81629;SDS011;71039;49.500;10.418;2024-02-16T14:11:01;1.30;;;1.20;;
81629;SDS011;71039;49.500;10.418;2024-02-16T14:13:26;1.52;;;1.42;;
81629;SDS011;71039;49.500;10.418;2024-02-16T14:15:52;1.58;;;1.48;;
81629;SDS011;71039;49.500;10.418;2024-02-16T14:18:17;1.20;;;1.10;;
81629;SDS011;71039;49.500;10.418;2024-02-16T14:20:43;1.42;;;1.17;;
81629;SDS011;71039;49.500;10.418;2024-02-16T14:23:08;0.88;;;0.88;;
81629;SDS011;71039;49.500;10.418;2024-02-16T14:25:34;1.35;;;1.30;;
81629;SDS011;71039;49.500;10.418;2024-02-16T14:27:59;1.15;;;1.08;;
81629;SDS011;71039;49.500;10.418;2024-02-16T14:30:25;1.02;;;1.02;;